createdAt,value
2018-07-03T00:00:32.592Z,44.70
2018-07-03T00:01:36.791Z,45.00
2018-07-03T00:02:40.880Z,45.20
2018-07-03T00:03:44.981Z,45.40
2018-07-03T00:04:49.066Z,45.40
2018-07-03T00:06:56.889Z,45.20
2018-07-03T00:08:00.998Z,45.80
2018-07-03T00:09:07.361Z,45.80
2018-07-03T00:10:12.277Z,45.70
2018-07-03T00:11:16.546Z,45.90
2018-07-03T00:12:20.689Z,46.00
2018-07-03T00:13:24.816Z,46.20
2018-07-03T00:14:28.959Z,45.90
2018-07-03T00:15:33.153Z,45.90
2018-07-03T00:16:42.596Z,46.60
2018-07-03T00:17:46.685Z,46.00
2018-07-03T00:18:50.847Z,46.20
2018-07-03T00:19:54.977Z,46.00
2018-07-03T00:20:59.060Z,45.90
2018-07-03T00:22:03.319Z,46.00
2018-07-03T00:23:07.500Z,46.00
2018-07-03T00:24:11.788Z,46.00
2018-07-03T00:25:15.885Z,46.10
2018-07-03T00:26:19.953Z,46.20
2018-07-03T00:27:24.026Z,46.20
2018-07-03T00:28:28.228Z,46.20
2018-07-03T00:29:32.402Z,46.20
2018-07-03T00:30:36.605Z,46.40
2018-07-03T00:31:40.709Z,46.60
2018-07-03T00:32:44.879Z,46.70
2018-07-03T00:33:49.152Z,46.70
2018-07-03T00:34:53.250Z,46.50
2018-07-03T00:35:57.454Z,46.40
2018-07-03T00:37:02.074Z,46.50
2018-07-03T00:38:06.228Z,46.40
2018-07-03T00:39:10.303Z,46.60
2018-07-03T00:40:14.580Z,46.40
2018-07-03T00:41:18.718Z,46.30
2018-07-03T00:42:22.835Z,46.10
2018-07-03T00:43:27.039Z,46.10
2018-07-03T00:44:31.231Z,46.10
2018-07-03T00:45:35.329Z,46.10
2018-07-03T00:46:39.480Z,46.20
2018-07-03T00:47:43.617Z,46.30
2018-07-03T00:48:47.725Z,46.40
2018-07-03T00:49:51.892Z,46.50
2018-07-03T00:50:55.981Z,46.80
2018-07-03T00:52:00.163Z,46.80
2018-07-03T00:53:04.340Z,46.90
2018-07-03T00:54:08.445Z,47.00
2018-07-03T00:55:12.573Z,46.90
2018-07-03T00:56:16.776Z,47.00
2018-07-03T00:57:21.125Z,47.20
2018-07-03T00:58:25.281Z,47.20
2018-07-03T00:59:29.390Z,47.20
2018-07-03T01:00:34.859Z,47.20
2018-07-03T01:01:39.012Z,47.20
2018-07-03T01:03:46.949Z,47.30
2018-07-03T01:04:51.115Z,47.40
2018-07-03T01:05:55.177Z,47.50
2018-07-03T01:06:59.243Z,47.40
2018-07-03T01:08:03.343Z,47.40
2018-07-03T01:09:08.775Z,47.40
2018-07-03T01:10:12.883Z,47.50
2018-07-03T01:11:16.979Z,47.40
2018-07-03T01:12:21.074Z,47.50
2018-07-03T01:13:25.200Z,47.50
2018-07-03T01:14:29.311Z,47.40
2018-07-03T01:15:33.562Z,47.30
2018-07-03T01:16:37.692Z,47.40
2018-07-03T01:17:41.835Z,47.50
2018-07-03T01:18:46.047Z,47.50
2018-07-03T01:19:50.171Z,47.50
2018-07-03T01:20:54.321Z,47.50
2018-07-03T01:21:58.479Z,47.50
2018-07-03T01:23:02.656Z,47.50
2018-07-03T01:24:06.752Z,47.50
2018-07-03T01:25:10.896Z,47.40
2018-07-03T01:26:15.010Z,47.50
2018-07-03T01:27:19.071Z,47.50
2018-07-03T01:28:23.197Z,47.50
2018-07-03T01:29:27.279Z,47.60
2018-07-03T01:30:31.430Z,47.70
2018-07-03T01:31:35.657Z,47.70
2018-07-03T01:32:39.794Z,47.60
2018-07-03T01:33:43.895Z,47.60
2018-07-03T01:34:48.073Z,47.40
2018-07-03T01:35:52.240Z,47.30
2018-07-03T01:36:56.547Z,47.30
2018-07-03T01:39:06.316Z,47.40
2018-07-03T01:40:10.503Z,47.50
2018-07-03T01:41:14.622Z,47.60
2018-07-03T01:42:18.681Z,47.70
2018-07-03T01:43:22.827Z,47.70
2018-07-03T01:44:27.002Z,47.80
2018-07-03T01:45:31.157Z,47.90
2018-07-03T01:46:35.321Z,48.00
2018-07-03T01:47:39.515Z,48.10
2018-07-03T01:48:49.535Z,48.30
2018-07-03T01:49:59.568Z,48.40
2018-07-03T01:51:09.864Z,48.40
2018-07-03T01:52:13.982Z,48.30
2018-07-03T01:53:18.124Z,48.30
2018-07-03T01:54:22.256Z,48.40
2018-07-03T01:55:26.398Z,48.40
2018-07-03T01:56:30.568Z,49.20
2018-07-03T01:57:34.687Z,48.60
2018-07-03T01:58:38.823Z,48.70
2018-07-03T01:59:42.973Z,48.70
2018-07-03T02:00:47.152Z,48.80
2018-07-03T02:01:51.330Z,48.90
2018-07-03T02:02:55.421Z,48.90
2018-07-03T02:03:59.496Z,49.00
2018-07-03T02:05:03.604Z,49.00
2018-07-03T02:06:07.755Z,49.10
2018-07-03T02:07:11.936Z,49.10
2018-07-03T02:08:16.067Z,49.20
2018-07-03T02:09:20.143Z,49.30
2018-07-03T02:10:25.167Z,49.50
2018-07-03T02:11:29.301Z,49.50
2018-07-03T02:12:33.416Z,49.60
2018-07-03T02:13:37.496Z,49.70
2018-07-03T02:14:41.615Z,49.70
2018-07-03T02:15:45.801Z,49.70
2018-07-03T02:16:49.974Z,49.80
2018-07-03T02:17:54.013Z,49.80
2018-07-03T02:18:58.173Z,49.90
2018-07-03T02:20:02.240Z,50.00
2018-07-03T02:21:06.553Z,50.00
2018-07-03T02:22:10.699Z,50.00
2018-07-03T02:23:14.804Z,49.90
2018-07-03T02:24:19.025Z,50.20
2018-07-03T02:25:23.181Z,50.20
2018-07-03T02:26:27.366Z,50.20
2018-07-03T02:27:31.481Z,50.80
2018-07-03T02:28:35.599Z,50.30
2018-07-03T02:29:39.665Z,50.30
2018-07-03T02:30:43.802Z,51.00
2018-07-03T02:31:47.971Z,50.50
2018-07-03T02:32:52.076Z,50.80
2018-07-03T02:33:56.307Z,50.40
2018-07-03T02:35:00.390Z,50.50
2018-07-03T02:36:04.568Z,50.50
2018-07-03T02:37:08.770Z,50.50
2018-07-03T02:38:12.912Z,50.60
2018-07-03T02:39:17.105Z,50.60
2018-07-03T02:40:21.181Z,50.70
2018-07-03T02:41:25.295Z,50.70
2018-07-03T02:42:29.477Z,50.70
2018-07-03T02:43:33.646Z,50.70
2018-07-03T02:44:37.799Z,50.90
2018-07-03T02:45:41.991Z,50.80
2018-07-03T02:46:46.141Z,50.80
2018-07-03T02:47:50.372Z,50.80
2018-07-03T02:48:54.497Z,50.90
2018-07-03T02:49:58.727Z,51.00
2018-07-03T02:51:02.871Z,51.10
2018-07-03T02:52:07.067Z,51.10
2018-07-03T02:53:11.174Z,51.20
2018-07-03T02:54:15.297Z,51.20
2018-07-03T02:55:19.425Z,51.30
2018-07-03T02:56:23.591Z,52.00
2018-07-03T02:57:27.770Z,51.30
2018-07-03T02:58:31.917Z,51.30
2018-07-03T02:59:36.172Z,51.20
2018-07-03T03:00:40.375Z,51.20
2018-07-03T03:01:44.444Z,51.30
2018-07-03T03:02:48.579Z,51.20
2018-07-03T03:03:52.756Z,51.30
2018-07-03T03:04:56.911Z,51.30
2018-07-03T03:06:01.061Z,51.30
2018-07-03T03:07:05.135Z,51.30
2018-07-03T03:08:09.331Z,51.30
2018-07-03T03:09:13.587Z,51.40
2018-07-03T03:10:17.729Z,51.30
2018-07-03T03:11:23.710Z,51.30
2018-07-03T03:12:27.847Z,51.30
2018-07-03T03:13:31.958Z,51.90
2018-07-03T03:14:36.074Z,51.30
2018-07-03T03:15:40.212Z,51.40
2018-07-03T03:16:44.396Z,51.40
2018-07-03T03:17:48.529Z,51.50
2018-07-03T03:18:52.729Z,51.50
2018-07-03T03:19:56.940Z,51.50
2018-07-03T03:21:01.121Z,51.60
2018-07-03T03:22:05.335Z,51.50
2018-07-03T03:23:09.459Z,51.50
2018-07-03T03:24:13.641Z,51.50
2018-07-03T03:25:17.909Z,51.50
2018-07-03T03:26:22.089Z,51.50
2018-07-03T03:27:26.205Z,51.60
2018-07-03T03:28:30.369Z,51.60
2018-07-03T03:29:34.440Z,51.60
2018-07-03T03:30:38.547Z,51.70
2018-07-03T03:31:42.642Z,51.80
2018-07-03T03:32:46.733Z,52.00
2018-07-03T03:33:50.894Z,52.00
2018-07-03T03:35:58.890Z,52.10
2018-07-03T03:37:03.150Z,52.10
2018-07-03T03:38:07.309Z,52.80
2018-07-03T03:39:11.477Z,52.20
2018-07-03T03:40:15.607Z,52.20
2018-07-03T03:41:19.696Z,52.40
2018-07-03T03:42:23.784Z,52.40
2018-07-03T03:43:27.834Z,52.40
2018-07-03T03:44:31.917Z,52.40
2018-07-03T03:46:39.839Z,52.80
2018-07-03T03:47:44.011Z,52.60
2018-07-03T03:48:48.183Z,52.50
2018-07-03T03:49:52.271Z,53.20
2018-07-03T03:50:56.448Z,52.60
2018-07-03T03:52:00.545Z,52.50
2018-07-03T03:53:04.878Z,52.50
2018-07-03T03:54:09.001Z,52.50
2018-07-03T03:55:13.280Z,52.50
2018-07-03T03:56:17.426Z,52.50
2018-07-03T03:57:21.538Z,52.50
2018-07-03T03:58:25.656Z,52.50
2018-07-03T04:00:33.525Z,53.20
2018-07-03T04:01:37.652Z,52.60
2018-07-03T04:02:41.764Z,52.70
2018-07-03T04:03:45.896Z,52.70
2018-07-03T04:04:50.199Z,53.50
2018-07-03T04:05:54.321Z,52.80
2018-07-03T04:06:58.453Z,52.80
2018-07-03T04:08:02.645Z,52.80
2018-07-03T04:09:08.636Z,52.80
2018-07-03T04:10:12.742Z,52.80
2018-07-03T04:11:16.893Z,52.90
2018-07-03T04:12:20.995Z,53.00
2018-07-03T04:13:25.167Z,53.00
2018-07-03T04:14:29.347Z,53.00
2018-07-03T04:15:33.681Z,53.00
2018-07-03T04:16:37.824Z,53.10
2018-07-03T04:17:42.023Z,53.20
2018-07-03T04:18:46.160Z,53.20
2018-07-03T04:19:50.515Z,53.30
2018-07-03T04:20:54.630Z,53.40
2018-07-03T04:21:58.695Z,53.40
2018-07-03T04:23:02.790Z,53.40
2018-07-03T04:24:06.903Z,53.50
2018-07-03T04:25:10.982Z,54.10
2018-07-03T04:26:15.069Z,53.60
2018-07-03T04:27:19.172Z,53.60
2018-07-03T04:28:23.354Z,53.70
2018-07-03T04:29:27.488Z,53.70
2018-07-03T04:30:31.565Z,53.70
2018-07-03T04:31:35.729Z,53.70
2018-07-03T04:32:39.873Z,53.70
2018-07-03T04:33:43.973Z,53.80
2018-07-03T04:34:48.393Z,53.70
2018-07-03T04:35:52.598Z,53.60
2018-07-03T04:36:56.657Z,53.70
2018-07-03T04:38:00.824Z,53.70
2018-07-03T04:39:08.209Z,53.60
2018-07-03T04:40:12.375Z,53.60
2018-07-03T04:41:16.500Z,53.50
2018-07-03T04:42:20.667Z,53.50
2018-07-03T04:44:28.550Z,53.50
2018-07-03T04:45:32.862Z,53.50
2018-07-03T04:46:36.948Z,53.60
2018-07-03T04:47:41.046Z,53.70
2018-07-03T04:48:45.160Z,53.70
2018-07-03T04:49:49.320Z,54.40
2018-07-03T04:50:53.466Z,53.70
2018-07-03T04:53:01.313Z,53.70
2018-07-03T04:54:05.467Z,53.60
2018-07-03T04:55:09.548Z,53.60
2018-07-03T04:56:13.843Z,53.60
2018-07-03T04:57:17.946Z,53.60
2018-07-03T04:58:22.058Z,53.60
2018-07-03T04:59:26.192Z,53.70
2018-07-03T05:00:30.789Z,53.70
2018-07-03T05:01:35.159Z,53.60
2018-07-03T05:02:39.317Z,53.50
2018-07-03T05:03:43.524Z,53.40
2018-07-03T05:04:47.657Z,53.30
2018-07-03T05:05:51.747Z,53.30
2018-07-03T05:06:55.905Z,53.30
2018-07-03T05:08:00.040Z,53.30
2018-07-03T05:09:05.998Z,53.20
2018-07-03T05:10:10.544Z,53.10
2018-07-03T05:11:14.693Z,53.00
2018-07-03T05:12:18.769Z,53.00
2018-07-03T05:13:22.985Z,53.00
2018-07-03T05:14:27.222Z,53.00
2018-07-03T05:15:31.299Z,53.00
2018-07-03T05:16:35.532Z,53.00
2018-07-03T05:17:39.652Z,53.00
2018-07-03T05:18:43.757Z,53.00
2018-07-03T05:19:47.897Z,53.10
2018-07-03T05:20:52.037Z,53.00
2018-07-03T05:21:56.167Z,52.70
2018-07-03T05:23:00.193Z,53.00
2018-07-03T05:24:04.337Z,52.90
2018-07-03T05:25:08.407Z,52.90
2018-07-03T05:26:12.482Z,53.00
2018-07-03T05:27:16.571Z,53.60
2018-07-03T05:28:20.798Z,53.10
2018-07-03T05:29:25.147Z,53.00
2018-07-03T05:30:29.279Z,53.00
2018-07-03T05:31:33.397Z,53.00
2018-07-03T05:32:37.519Z,53.00
2018-07-03T05:33:41.650Z,53.10
2018-07-03T05:34:45.828Z,53.20
2018-07-03T05:35:49.896Z,53.20
2018-07-03T05:36:54.154Z,53.20
2018-07-03T05:37:58.357Z,53.20
2018-07-03T05:39:02.453Z,53.10
2018-07-03T05:40:06.696Z,53.00
2018-07-03T05:41:10.841Z,52.80
2018-07-03T05:42:14.990Z,52.80
2018-07-03T05:43:19.116Z,52.80
2018-07-03T05:44:23.240Z,53.50
2018-07-03T05:45:27.307Z,53.30
2018-07-03T05:46:31.550Z,52.70
2018-07-03T05:47:35.676Z,52.70
2018-07-03T05:48:39.790Z,52.40
2018-07-03T05:49:43.899Z,52.50
2018-07-03T05:50:47.994Z,52.40
2018-07-03T05:51:52.201Z,52.50
2018-07-03T05:52:56.241Z,52.40
2018-07-03T05:54:00.372Z,52.40
2018-07-03T05:55:07.714Z,52.30
2018-07-03T05:56:11.834Z,52.50
2018-07-03T05:57:15.927Z,52.40
2018-07-03T05:58:20.001Z,52.40
2018-07-03T05:59:24.322Z,52.40
2018-07-03T06:00:28.465Z,52.40
2018-07-03T06:01:32.706Z,52.40
2018-07-03T06:02:36.924Z,52.40
2018-07-03T06:03:41.360Z,52.50
2018-07-03T06:04:45.599Z,53.00
2018-07-03T06:05:49.888Z,52.40
2018-07-03T06:06:53.963Z,52.40
2018-07-03T06:07:58.206Z,52.60
2018-07-03T06:09:02.574Z,53.00
2018-07-03T06:10:06.670Z,52.40
2018-07-03T06:11:10.839Z,52.50
2018-07-03T06:12:15.294Z,52.50
2018-07-03T06:13:19.468Z,52.50
2018-07-03T06:14:23.569Z,52.50
2018-07-03T06:15:27.636Z,52.50
2018-07-03T06:16:31.848Z,52.40
2018-07-03T06:17:35.900Z,52.40
2018-07-03T06:18:41.575Z,52.50
2018-07-03T06:19:45.708Z,52.50
2018-07-03T06:20:49.825Z,52.50
2018-07-03T06:21:54.728Z,52.50
2018-07-03T06:22:58.906Z,52.50
2018-07-03T06:24:03.024Z,52.50
2018-07-03T06:25:07.166Z,52.40
2018-07-03T06:26:11.267Z,52.20
2018-07-03T06:27:15.411Z,52.20
2018-07-03T06:29:23.283Z,52.80
2018-07-03T06:30:27.455Z,52.00
2018-07-03T06:31:31.619Z,51.90
2018-07-03T06:32:35.780Z,51.80
2018-07-03T06:33:39.924Z,51.60
2018-07-03T06:34:44.087Z,51.50
2018-07-03T06:36:52.031Z,50.70
2018-07-03T06:37:56.227Z,51.20
2018-07-03T06:39:00.402Z,51.20
2018-07-03T06:40:04.713Z,51.20
2018-07-03T06:41:08.911Z,51.20
2018-07-03T06:42:13.050Z,51.20
2018-07-03T06:43:17.159Z,51.20
2018-07-03T06:44:21.333Z,51.10
2018-07-03T06:45:25.440Z,51.00
2018-07-03T06:46:29.609Z,50.90
2018-07-03T06:47:33.801Z,50.90
2018-07-03T06:48:37.919Z,51.40
2018-07-03T06:49:42.015Z,51.30
2018-07-03T06:51:49.899Z,50.60
2018-07-03T06:52:54.251Z,50.40
2018-07-03T06:53:58.954Z,50.90
2018-07-03T06:55:03.372Z,50.90
2018-07-03T06:56:07.550Z,50.40
2018-07-03T06:58:15.595Z,50.20
2018-07-03T06:59:19.768Z,50.70
2018-07-03T07:00:23.887Z,50.00
2018-07-03T07:01:28.031Z,50.00
2018-07-03T07:02:32.168Z,49.90
2018-07-03T07:03:36.313Z,49.80
2018-07-03T07:04:40.437Z,49.90
2018-07-03T07:05:44.634Z,49.90
2018-07-03T07:06:48.855Z,49.80
2018-07-03T07:07:53.277Z,49.80
2018-07-03T07:08:57.495Z,49.80
2018-07-03T07:11:05.218Z,49.90
2018-07-03T07:12:09.531Z,49.90
2018-07-03T07:13:13.679Z,50.60
2018-07-03T07:14:17.817Z,50.00
2018-07-03T07:15:21.965Z,50.00
2018-07-03T07:16:26.017Z,50.10
2018-07-03T07:17:30.202Z,50.00
2018-07-03T07:18:34.388Z,50.10
2018-07-03T07:19:38.542Z,49.80
2018-07-03T07:20:42.765Z,49.90
2018-07-03T07:21:46.972Z,50.00
2018-07-03T07:22:51.141Z,49.90
2018-07-03T07:24:58.967Z,49.30
2018-07-03T07:26:03.155Z,50.00
2018-07-03T07:28:11.013Z,49.70
2018-07-03T07:29:15.157Z,49.40
2018-07-03T07:30:19.345Z,49.40
2018-07-03T07:31:23.631Z,49.30
2018-07-03T07:32:27.846Z,49.20
2018-07-03T07:33:31.973Z,49.20
2018-07-03T07:35:39.811Z,49.20
2018-07-03T07:36:43.948Z,49.10
2018-07-03T07:37:48.083Z,49.00
2018-07-03T07:38:52.245Z,48.90
2018-07-03T07:39:56.406Z,48.70
2018-07-03T07:41:00.563Z,48.50
2018-07-03T07:42:04.720Z,48.50
2018-07-03T07:43:08.835Z,48.50
2018-07-03T07:44:12.979Z,48.50
2018-07-03T07:45:17.088Z,48.30
2018-07-03T07:46:21.202Z,48.20
2018-07-03T07:47:25.301Z,48.10
2018-07-03T07:48:29.423Z,48.00
2018-07-03T07:49:33.537Z,47.90
2018-07-03T07:50:37.679Z,47.80
2018-07-03T07:51:41.800Z,47.50
2018-07-03T07:52:45.965Z,47.50
2018-07-03T07:53:56.785Z,47.20
2018-07-03T07:55:00.900Z,47.00
2018-07-03T07:58:12.550Z,46.70
2018-07-03T07:59:16.727Z,46.60
2018-07-03T08:00:20.867Z,46.60
2018-07-03T08:01:24.966Z,46.30
2018-07-03T08:02:29.152Z,46.10
2018-07-03T08:03:33.314Z,46.00
2018-07-03T08:04:37.505Z,45.80
2018-07-03T08:06:45.361Z,45.40
2018-07-03T08:07:49.554Z,45.20
2018-07-03T08:08:53.669Z,45.20
2018-07-03T08:09:57.836Z,45.10
2018-07-03T08:11:02.000Z,44.70
2018-07-03T08:12:06.544Z,44.60
2018-07-03T08:13:10.634Z,44.30
2018-07-03T08:14:14.777Z,43.90
2018-07-03T08:15:18.961Z,43.80
2018-07-03T08:17:26.804Z,43.30
2018-07-03T08:18:30.974Z,42.90
2018-07-03T08:19:35.025Z,42.80
2018-07-03T08:20:39.169Z,42.80
2018-07-03T08:21:43.295Z,42.60
2018-07-03T08:22:47.437Z,42.50
2018-07-03T08:23:51.591Z,42.20
2018-07-03T08:24:55.734Z,42.00
2018-07-03T08:25:59.907Z,41.80
2018-07-03T08:27:04.039Z,41.70
2018-07-03T08:28:08.232Z,41.50
2018-07-03T08:29:12.492Z,40.80
2018-07-03T08:30:16.687Z,40.60
2018-07-03T08:31:20.760Z,40.30
2018-07-03T08:32:25.214Z,40.20
2018-07-03T08:33:29.371Z,40.00
2018-07-03T08:34:33.823Z,39.90
2018-07-03T08:35:38.039Z,39.70
2018-07-03T08:36:42.215Z,39.40
2018-07-03T08:37:46.348Z,39.20
2018-07-03T08:38:50.471Z,39.00
2018-07-03T08:39:54.664Z,38.80
2018-07-03T08:42:02.715Z,38.80
2018-07-03T08:43:07.259Z,38.80
2018-07-03T08:44:11.466Z,38.80
2018-07-03T08:45:15.628Z,38.70
2018-07-03T08:46:19.724Z,38.60
2018-07-03T08:47:23.868Z,38.70
2018-07-03T08:48:28.132Z,38.50
2018-07-03T08:49:32.317Z,38.50
2018-07-03T08:50:36.424Z,38.30
2018-07-03T08:51:40.686Z,38.10
2018-07-03T08:52:51.332Z,38.00
2018-07-03T08:53:55.493Z,38.00
2018-07-03T08:54:59.635Z,38.10
2018-07-03T08:56:03.839Z,38.00
2018-07-03T08:57:07.949Z,38.00
2018-07-03T08:58:12.085Z,38.00
2018-07-03T08:59:16.194Z,37.90
2018-07-03T09:00:20.291Z,37.70
2018-07-03T09:01:24.484Z,37.50
2018-07-03T09:02:28.698Z,38.20
2018-07-03T09:03:32.782Z,37.50
2018-07-03T09:04:37.004Z,37.40
2018-07-03T09:05:41.118Z,37.50
2018-07-03T09:06:45.353Z,37.50
2018-07-03T09:07:49.816Z,37.50
2018-07-03T09:08:53.965Z,37.10
2018-07-03T09:09:58.048Z,37.10
2018-07-03T09:11:02.207Z,37.10
2018-07-03T09:12:06.337Z,37.20
2018-07-03T09:13:10.421Z,37.20
2018-07-03T09:14:14.628Z,37.60
2018-07-03T09:15:18.793Z,37.00
2018-07-03T09:16:23.141Z,36.80
2018-07-03T09:18:32.900Z,36.60
2018-07-03T09:19:37.061Z,36.40
2018-07-03T09:20:41.256Z,35.60
2018-07-03T09:21:45.419Z,36.00
2018-07-03T09:22:49.495Z,35.70
2018-07-03T09:23:53.700Z,35.60
2018-07-03T09:24:57.807Z,35.30
2018-07-03T09:26:02.316Z,35.10
2018-07-03T09:27:07.653Z,34.70
2018-07-03T09:28:12.483Z,34.50
2018-07-03T09:29:16.831Z,34.40
2018-07-03T09:30:20.948Z,34.40
2018-07-03T09:31:25.091Z,34.40
2018-07-03T09:32:29.192Z,34.40
2018-07-03T09:33:33.302Z,34.20
2018-07-03T09:34:37.483Z,34.00
2018-07-03T09:35:41.661Z,33.90
2018-07-03T09:36:46.394Z,33.80
2018-07-03T09:37:51.333Z,33.60
2018-07-03T09:38:55.475Z,33.20
2018-07-03T09:39:59.691Z,33.30
2018-07-03T09:41:04.031Z,33.30
2018-07-03T09:42:08.552Z,33.10
2018-07-03T09:43:12.827Z,32.70
2018-07-03T09:44:16.921Z,32.50
2018-07-03T09:46:25.449Z,32.10
2018-07-03T09:47:29.702Z,31.60
2018-07-03T09:48:35.362Z,31.60
2018-07-03T09:49:39.507Z,31.40
2018-07-03T09:50:44.720Z,31.20
2018-07-03T09:51:48.874Z,30.90
2018-07-03T09:52:53.191Z,30.70
2018-07-03T09:53:58.174Z,30.40
2018-07-03T09:55:02.555Z,30.40
2018-07-03T09:56:06.812Z,30.30
2018-07-03T09:57:11.169Z,30.10
2018-07-03T09:58:15.682Z,30.10
2018-07-03T09:59:19.813Z,29.80
2018-07-03T10:00:29.353Z,29.90
2018-07-03T10:01:33.875Z,30.00
2018-07-03T10:02:41.034Z,29.90
2018-07-03T10:03:45.242Z,29.50
2018-07-03T10:04:49.375Z,29.40
2018-07-03T10:05:53.576Z,29.30
2018-07-03T10:08:02.060Z,29.10
2018-07-03T10:09:08.571Z,29.10
2018-07-03T10:10:13.480Z,29.00
2018-07-03T10:11:18.487Z,28.80
2018-07-03T10:12:22.595Z,28.60
2018-07-03T10:13:26.769Z,28.90
2018-07-03T10:14:30.975Z,28.20
2018-07-03T10:15:35.405Z,28.10
2018-07-03T10:17:43.356Z,27.70
2018-07-03T10:18:47.562Z,27.40
2018-07-03T10:19:52.347Z,27.40
2018-07-03T10:20:56.711Z,27.30
2018-07-03T10:22:00.917Z,27.40
2018-07-03T10:23:05.193Z,27.40
2018-07-03T10:24:09.431Z,28.00
2018-07-03T10:25:13.676Z,27.50
2018-07-03T10:26:18.069Z,27.50
2018-07-03T10:27:22.191Z,27.50
2018-07-03T10:28:26.874Z,27.20
2018-07-03T10:29:31.003Z,27.40
2018-07-03T10:30:35.156Z,27.50
2018-07-03T10:31:39.381Z,27.30
2018-07-03T10:32:43.532Z,27.40
2018-07-03T10:33:49.389Z,26.90
2018-07-03T10:34:53.459Z,26.80
2018-07-03T10:35:59.331Z,26.70
2018-07-03T10:37:04.743Z,26.60
2018-07-03T10:38:08.872Z,26.50
2018-07-03T10:39:14.240Z,27.00
2018-07-03T10:40:18.595Z,26.60
2018-07-03T10:41:23.615Z,26.60
2018-07-03T10:42:27.970Z,26.60
2018-07-03T10:43:32.093Z,26.70
2018-07-03T10:44:36.318Z,26.70
2018-07-03T10:45:40.773Z,27.10
2018-07-03T10:46:44.977Z,26.50
2018-07-03T10:47:51.173Z,26.30
2018-07-03T10:48:55.410Z,26.20
2018-07-03T10:49:59.583Z,26.30
2018-07-03T10:51:03.748Z,26.20
2018-07-03T10:52:08.131Z,26.10
2018-07-03T10:53:12.403Z,26.40
2018-07-03T10:54:16.510Z,26.00
2018-07-03T10:55:21.787Z,25.90
2018-07-03T10:56:26.087Z,25.80
2018-07-03T10:57:30.171Z,25.70
2018-07-03T10:58:34.359Z,25.60
2018-07-03T10:59:38.552Z,25.40
2018-07-03T11:00:42.608Z,25.40
2018-07-03T11:01:46.717Z,25.30
2018-07-03T11:02:50.883Z,25.20
2018-07-03T11:03:56.257Z,25.10
2018-07-03T11:05:00.558Z,25.20
2018-07-03T11:06:05.694Z,25.10
2018-07-03T11:07:11.009Z,25.10
2018-07-03T11:08:16.216Z,24.90
2018-07-03T11:09:21.568Z,25.00
2018-07-03T11:10:26.907Z,25.00
2018-07-03T11:11:31.736Z,24.70
2018-07-03T11:12:35.899Z,24.50
2018-07-03T11:13:40.058Z,24.30
2018-07-03T11:14:44.254Z,24.10
2018-07-03T11:15:48.384Z,24.10
2018-07-03T11:16:52.920Z,23.80
2018-07-03T11:17:56.977Z,23.80
2018-07-03T11:19:01.093Z,23.80
2018-07-03T11:20:06.085Z,23.70
2018-07-03T11:21:10.030Z,23.80
2018-07-03T11:22:14.132Z,24.10
2018-07-03T11:23:18.260Z,23.60
2018-07-03T11:24:23.451Z,23.70
2018-07-03T11:25:27.741Z,23.80
2018-07-03T11:26:32.107Z,23.90
2018-07-03T11:27:36.247Z,24.00
2018-07-03T11:28:40.420Z,23.90
2018-07-03T11:29:44.481Z,24.00
2018-07-03T11:30:48.598Z,23.70
2018-07-03T11:31:52.875Z,23.70
2018-07-03T11:32:57.049Z,23.60
2018-07-03T11:34:01.361Z,23.50
2018-07-03T11:35:05.911Z,23.50
2018-07-03T11:36:10.268Z,23.30
2018-07-03T11:37:14.469Z,23.80
2018-07-03T11:38:18.592Z,22.80
2018-07-03T11:39:22.733Z,23.30
2018-07-03T11:40:26.898Z,23.20
2018-07-03T11:41:31.064Z,23.00
2018-07-03T11:42:35.168Z,22.70
2018-07-03T11:43:39.252Z,22.60
2018-07-03T11:44:43.508Z,22.50
2018-07-03T11:45:47.648Z,23.00
2018-07-03T11:46:51.789Z,22.50
2018-07-03T11:47:55.888Z,22.40
2018-07-03T11:49:00.161Z,22.40
2018-07-03T11:50:05.380Z,22.20
2018-07-03T11:51:09.547Z,22.10
2018-07-03T11:52:13.674Z,22.00
2018-07-03T11:53:17.797Z,22.00
2018-07-03T11:54:21.913Z,22.10
2018-07-03T11:55:26.006Z,22.10
2018-07-03T11:56:30.163Z,22.00
2018-07-03T11:57:34.405Z,22.10
2018-07-03T11:58:38.528Z,22.20
2018-07-03T11:59:42.765Z,22.20
2018-07-03T12:00:46.882Z,22.10
2018-07-03T12:01:51.027Z,22.20
2018-07-03T12:02:55.277Z,22.20
2018-07-03T12:03:59.437Z,22.40
2018-07-03T12:05:03.753Z,22.30
2018-07-03T12:06:07.891Z,22.40
2018-07-03T12:07:12.073Z,22.50
2018-07-03T12:08:16.228Z,22.30
2018-07-03T12:09:20.285Z,22.20
2018-07-03T12:10:24.428Z,22.60
2018-07-03T12:11:28.502Z,22.30
2018-07-03T12:12:32.636Z,22.10
2018-07-03T12:13:36.751Z,22.30
2018-07-03T12:14:41.035Z,22.80
2018-07-03T12:15:45.100Z,22.40
2018-07-03T12:16:49.338Z,22.40
2018-07-03T12:17:53.621Z,22.40
2018-07-03T12:18:59.275Z,22.50
2018-07-03T12:20:03.829Z,22.70
2018-07-03T12:21:07.968Z,23.00
2018-07-03T12:22:12.173Z,22.90
2018-07-03T12:23:16.416Z,23.00
2018-07-03T12:24:20.657Z,23.00
2018-07-03T12:25:24.807Z,23.00
2018-07-03T12:26:29.069Z,22.90
2018-07-03T12:28:37.084Z,23.00
2018-07-03T12:29:41.558Z,23.00
2018-07-03T12:30:45.835Z,23.20
2018-07-03T12:31:49.989Z,23.20
2018-07-03T12:32:54.162Z,23.40
2018-07-03T12:33:58.233Z,23.60
2018-07-03T12:35:02.435Z,23.60
2018-07-03T12:36:08.348Z,23.60
2018-07-03T12:37:12.639Z,23.60
2018-07-03T12:38:16.909Z,23.70
2018-07-03T12:39:21.042Z,23.80
2018-07-03T12:40:25.218Z,23.80
2018-07-03T12:41:29.462Z,23.80
2018-07-03T12:42:33.678Z,23.70
2018-07-03T12:43:37.895Z,23.70
2018-07-03T12:44:42.119Z,23.70
2018-07-03T12:45:46.249Z,23.70
2018-07-03T12:46:51.033Z,23.70
2018-07-03T12:47:55.221Z,23.70
2018-07-03T12:48:59.404Z,23.60
2018-07-03T12:50:03.699Z,23.60
2018-07-03T12:51:07.997Z,23.80
2018-07-03T12:52:13.037Z,23.70
2018-07-03T12:53:17.171Z,23.80
2018-07-03T12:54:21.319Z,23.80
2018-07-03T12:55:25.481Z,23.80
2018-07-03T12:56:29.699Z,23.90
2018-07-03T12:57:33.859Z,24.60
2018-07-03T12:58:38.056Z,24.10
2018-07-03T12:59:42.269Z,24.20
2018-07-03T13:00:46.397Z,24.10
2018-07-03T13:01:50.491Z,23.90
2018-07-03T13:02:54.619Z,23.80
2018-07-03T13:03:58.765Z,23.80
2018-07-03T13:05:02.976Z,23.90
2018-07-03T13:06:07.069Z,24.40
2018-07-03T13:07:11.267Z,23.70
2018-07-03T13:08:15.366Z,23.60
2018-07-03T13:09:19.532Z,23.50
2018-07-03T13:10:23.659Z,23.50
2018-07-03T13:11:27.810Z,23.40
2018-07-03T13:12:32.014Z,23.30
2018-07-03T13:13:36.833Z,23.20
2018-07-03T13:14:41.045Z,23.10
2018-07-03T13:15:45.309Z,23.20
2018-07-03T13:16:49.488Z,23.90
2018-07-03T13:17:53.626Z,23.50
2018-07-03T13:18:57.717Z,23.60
2018-07-03T13:20:01.842Z,23.80
2018-07-03T13:21:06.299Z,24.10
2018-07-03T13:22:10.550Z,24.30
2018-07-03T13:23:14.855Z,24.40
2018-07-03T13:24:18.961Z,24.50
2018-07-03T13:25:23.148Z,24.60
2018-07-03T13:26:27.362Z,24.70
2018-07-03T13:27:31.469Z,24.90
2018-07-03T13:28:35.579Z,25.00
2018-07-03T13:29:39.727Z,25.10
2018-07-03T13:30:43.885Z,25.20
2018-07-03T13:31:48.055Z,25.20
2018-07-03T13:32:52.113Z,25.10
2018-07-03T13:33:56.219Z,25.20
2018-07-03T13:35:00.319Z,25.30
2018-07-03T13:36:04.563Z,25.40
2018-07-03T13:37:08.810Z,25.40
2018-07-03T13:38:13.019Z,25.40
2018-07-03T13:39:17.141Z,25.30
2018-07-03T13:40:21.334Z,25.20
2018-07-03T13:41:25.536Z,25.20
2018-07-03T13:42:29.705Z,25.20
2018-07-03T13:43:33.929Z,25.30
2018-07-03T13:44:38.056Z,25.30
2018-07-03T13:45:42.190Z,25.20
2018-07-03T13:46:46.398Z,25.30
2018-07-03T13:47:50.527Z,25.20
2018-07-03T13:48:54.726Z,25.30
2018-07-03T13:49:58.843Z,24.90
2018-07-03T13:51:02.932Z,26.00
2018-07-03T13:52:07.024Z,25.50
2018-07-03T13:53:11.169Z,25.50
2018-07-03T13:54:15.300Z,25.30
2018-07-03T13:55:19.613Z,25.30
2018-07-03T13:56:23.819Z,25.30
2018-07-03T13:57:28.088Z,25.20
2018-07-03T13:58:32.307Z,25.10
2018-07-03T13:59:36.471Z,25.20
2018-07-03T14:00:40.559Z,25.20
2018-07-03T14:01:44.767Z,25.20
2018-07-03T14:02:48.964Z,25.10
2018-07-03T14:03:53.151Z,25.20
2018-07-03T14:04:57.197Z,25.10
2018-07-03T14:06:01.604Z,25.00
2018-07-03T14:08:09.455Z,25.20
2018-07-03T14:09:13.643Z,25.20
2018-07-03T14:10:17.762Z,25.20
2018-07-03T14:11:21.935Z,25.10
2018-07-03T14:12:26.101Z,25.00
2018-07-03T14:13:30.245Z,25.00
2018-07-03T14:14:34.300Z,25.00
2018-07-03T14:15:38.485Z,24.90
2018-07-03T14:16:42.641Z,24.80